Time;durP1;ratioP1;P1;durP2;ratioP2;P2;SDS_P1;SDS_P2;PMS_P1;PMS_P2;Temp;Humidity;BMP_temperature;BMP_pressure;BME280_temperature;BME280_humidity;BME280_pressure;Samples;Min_cycle;Max_cycle;Signal;HPM_P1;HPM_P2
2023/12/06 00:02:06;;;;;;;66.78;39.42;;;;;;;1.08;100.00;100860.66;5029018;28;20041;-74
2023/12/06 00:04:33;;;;;;;49.92;23.40;;;;;;;1.04;100.00;100864.06;5032032;28;20069;-74
2023/12/06 00:07:00;;;;;;;55.33;34.55;;;;;;;1.06;100.00;100882.28;5050049;28;20052;-73
2023/12/06 00:09:27;;;;;;;56.22;37.33;;;;;;;1.07;100.00;100884.00;5050866;28;20041;-73
2023/12/06 00:11:54;;;;;;;53.20;33.30;;;;;;;1.04;100.00;100882.25;5021363;28;20545;-74
2023/12/06 00:14:21;;;;;;;35.33;16.58;;;;;;;1.03;100.00;100879.66;5028725;28;20116;-74
2023/12/06 00:16:48;;;;;;;54.42;35.25;;;;;;;1.02;100.00;100878.75;5048786;28;20136;-74
2023/12/06 00:19:15;;;;;;;35.25;17.38;;;;;;;1.02;100.00;100886.53;5050383;28;20517;-74
2023/12/06 00:21:42;;;;;;;56.03;35.70;;;;;;;1.01;100.00;100884.84;5032980;28;20706;-74
2023/12/06 00:24:09;;;;;;;56.35;35.92;;;;;;;1.02;100.00;100886.53;5029194;28;20084;-73
2023/12/06 00:26:39;;;;;;;50.30;34.30;;;;;;;1.01;100.00;100886.53;5029234;28;20045;-72
2023/12/06 00:29:06;;;;;;;49.60;32.83;;;;;;;1.02;100.00;100889.16;5028074;28;20485;-72
2023/12/06 00:31:34;;;;;;;29.02;14.55;;;;;;;1.00;100.00;100896.06;5035146;28;20049;-73
2023/12/06 00:34:01;;;;;;;47.75;30.38;;;;;;;0.98;100.00;100884.78;5029085;28;20486;-72
2023/12/06 00:36:29;;;;;;;49.97;33.50;;;;;;;1.02;100.00;100898.66;5045601;28;20049;-73
2023/12/06 00:38:56;;;;;;;47.45;32.55;;;;;;;1.01;100.00;100902.13;5038077;28;20139;-72
2023/12/06 00:41:24;;;;;;;46.03;31.33;;;;;;;0.99;100.00;100901.22;5035268;28;20476;-72
2023/12/06 00:43:53;;;;;;;47.53;30.80;;;;;;;1.00;100.00;100909.06;5028021;28;20124;-72
2023/12/06 00:46:20;;;;;;;46.72;33.00;;;;;;;1.00;100.00;100910.75;5034047;28;20706;-72
2023/12/06 00:48:47;;;;;;;37.47;18.45;;;;;;;0.99;100.00;100911.63;5038587;28;20077;-72
2023/12/06 00:51:14;;;;;;;42.45;30.70;;;;;;;1.00;100.00;100913.34;5028799;28;20049;-74
2023/12/06 00:53:41;;;;;;;44.35;30.95;;;;;;;1.01;100.00;100907.31;5014785;28;20139;-73
2023/12/06 00:56:13;;;;;;;27.70;13.23;;;;;;;1.01;100.00;100916.00;5030056;28;20045;-73
2023/12/06 00:58:42;;;;;;;44.15;30.23;;;;;;;1.03;100.00;100913.41;5028245;28;20046;-72
2023/12/06 01:01:12;;;;;;;42.53;29.52;;;;;;;1.05;100.00;100922.09;5028890;28;20046;-73
2023/12/06 01:03:40;;;;;;;45.50;33.10;;;;;;;1.05;100.00;100922.94;5029260;28;20076;-72
2023/12/06 01:06:08;;;;;;;44.60;30.20;;;;;;;1.07;100.00;100933.31;5029697;28;20042;-72
2023/12/06 01:08:35;;;;;;;46.05;32.53;;;;;;;1.07;100.00;100942.00;5028056;28;20060;-73
2023/12/06 01:11:03;;;;;;;44.83;31.77;;;;;;;1.11;100.00;100945.50;5028016;28;20049;-73
2023/12/06 01:13:30;;;;;;;45.72;31.98;;;;;;;1.11;100.00;100945.50;5027740;28;20052;-74
2023/12/06 01:15:57;;;;;;;46.47;31.25;;;;;;;1.14;100.00;100955.94;5027488;28;20470;-74
2023/12/06 01:18:24;;;;;;;47.65;33.30;;;;;;;1.16;100.00;100951.63;5028373;28;20514;-73
2023/12/06 01:20:52;;;;;;;45.50;31.80;;;;;;;1.18;100.00;100949.91;5045829;28;20468;-73
2023/12/06 01:23:19;;;;;;;46.80;31.00;;;;;;;1.20;100.00;100957.72;5027907;28;20046;-73
2023/12/06 01:25:46;;;;;;;49.90;33.65;;;;;;;1.22;100.00;100963.81;5029266;28;20049;-74
2023/12/06 01:28:13;;;;;;;44.88;30.75;;;;;;;1.24;100.00;100968.16;5029037;28;20045;-73
2023/12/06 01:30:40;;;;;;;43.35;31.88;;;;;;;1.24;100.00;100970.75;5028148;28;20045;-73
2023/12/06 01:33:07;;;;;;;46.20;31.67;;;;;;;1.27;100.00;100963.84;5029573;28;20049;-73
2023/12/06 01:35:34;;;;;;;50.35;33.30;;;;;;;1.26;100.00;100969.91;5030579;28;20460;-73
2023/12/06 01:38:01;;;;;;;49.00;31.90;;;;;;;1.27;100.00;100961.25;5029167;28;20049;-73
2023/12/06 01:40:28;;;;;;;49.35;32.47;;;;;;;1.28;100.00;100968.16;5029205;28;20125;-73
2023/12/06 01:42:55;;;;;;;47.17;31.35;;;;;;;1.30;100.00;100971.66;5027018;28;20045;-73
2023/12/06 01:45:22;;;;;;;48.50;31.48;;;;;;;1.32;100.00;100977.75;5027193;28;20541;-73
2023/12/06 01:47:54;;;;;;;38.67;18.73;;;;;;;1.31;100.00;100981.19;5042694;28;20045;-73
2023/12/06 01:50:23;;;;;;;49.33;34.03;;;;;;;1.30;100.00;100993.31;5032687;28;20548;-73
2023/12/06 01:52:50;;;;;;;54.08;33.72;;;;;;;1.33;100.00;100998.53;5028852;28;20144;-73
2023/12/06 01:55:18;;;;;;;50.42;34.83;;;;;;;1.32;100.00;100996.81;5028047;28;20047;-74
2023/12/06 01:57:45;;;;;;;47.33;33.03;;;;;;;1.34;100.00;100996.81;5036270;28;20592;-73
2023/12/06 02:00:15;;;;;;;52.72;35.60;;;;;;;1.33;100.00;100998.53;5027833;28;20065;-74
2023/12/06 02:02:43;;;;;;;53.33;34.85;;;;;;;1.33;100.00;101002.88;5021901;28;20499;-74
2023/12/06 02:05:12;;;;;;;53.28;34.90;;;;;;;1.33;100.00;100993.34;5015968;28;20041;-72
2023/12/06 02:07:40;;;;;;;54.25;35.25;;;;;;;1.33;100.00;100995.94;5025937;28;20124;-72
2023/12/06 02:10:07;;;;;;;50.97;33.60;;;;;;;1.31;100.00;101002.88;5021385;28;20129;-72
2023/12/06 02:12:35;;;;;;;43.65;18.98;;;;;;;1.32;100.00;101003.72;5027314;28;20044;-72
2023/12/06 02:15:03;;;;;;;54.35;35.75;;;;;;;1.32;100.00;101006.31;5027073;28;20057;-72
2023/12/06 02:17:32;;;;;;;38.97;19.70;;;;;;;1.33;100.00;101003.72;5047475;28;20424;-73
2023/12/06 02:20:02;;;;;;;56.97;33.35;;;;;;;1.36;100.00;101003.75;5016267;28;20042;-72
2023/12/06 02:22:31;;;;;;;48.50;31.30;;;;;;;1.36;100.00;101000.31;5027529;28;20474;-72
2023/12/06 02:25:02;;;;;;;38.42;18.38;;;;;;;1.37;100.00;101005.50;5026425;28;20120;-72
2023/12/06 02:27:29;;;;;;;56.53;34.13;;;;;;;1.37;100.00;101007.25;5029111;28;20044;-72
2023/12/06 02:29:57;;;;;;;53.38;33.92;;;;;;;1.38;100.00;100999.47;5037394;28;20049;-72
2023/12/06 02:32:24;;;;;;;60.45;35.25;;;;;;;1.40;100.00;100999.47;5021831;28;20045;-72
2023/12/06 02:34:56;;;;;;;55.92;33.05;;;;;;;1.41;100.00;100998.63;5021003;28;20052;-71
2023/12/06 02:37:23;;;;;;;62.08;35.00;;;;;;;1.39;100.00;101002.91;5028178;28;20132;-72
2023/12/06 02:39:55;;;;;;;60.10;33.75;;;;;;;1.42;100.00;101009.91;5028557;28;20045;-72
2023/12/06 02:42:22;;;;;;;59.10;33.85;;;;;;;1.40;100.00;101009.88;5028004;28;20072;-71
2023/12/06 02:44:49;;;;;;;61.03;34.83;;;;;;;1.43;100.00;101009.91;5027498;28;20049;-72
2023/12/06 02:47:17;;;;;;;52.80;30.77;;;;;;;1.44;100.00;101013.34;5027696;28;20405;-72
2023/12/06 02:49:43;;;;;;;60.33;34.65;;;;;;;1.44;100.00;101016.84;5028762;28;20037;-72
2023/12/06 02:52:12;;;;;;;58.70;35.20;;;;;;;1.45;100.00;101021.19;5027318;28;20472;-71
2023/12/06 02:54:39;;;;;;;61.33;35.85;;;;;;;1.48;100.00;101018.59;5007602;28;20038;-71
2023/12/06 02:57:06;;;;;;;60.38;35.55;;;;;;;1.48;100.00;101017.75;5023417;28;20472;-71
2023/12/06 02:59:34;;;;;;;65.15;36.38;;;;;;;1.50;100.00;101027.28;5047704;28;20083;-71
2023/12/06 03:02:02;;;;;;;62.60;35.58;;;;;;;1.51;100.00;101020.38;5027258;28;20048;-72
2023/12/06 03:04:29;;;;;;;69.63;43.65;;;;;;;1.52;100.00;101014.34;5028247;28;20065;-71
2023/12/06 03:06:56;;;;;;;41.65;19.45;;;;;;;1.54;100.00;101015.19;5029641;28;20042;-71
2023/12/06 03:09:23;;;;;;;43.08;20.13;;;;;;;1.53;100.00;101016.03;5027108;28;20103;-71
2023/12/06 03:11:50;;;;;;;59.85;37.17;;;;;;;1.57;100.00;101016.97;5026541;28;20045;-71
2023/12/06 03:14:17;;;;;;;59.70;35.33;;;;;;;1.57;100.00;101014.38;5026856;28;20052;-71
2023/12/06 03:16:44;;;;;;;62.72;39.15;;;;;;;1.61;100.00;101017.00;5025052;28;20049;-71
2023/12/06 03:19:11;;;;;;;60.80;36.25;;;;;;;1.62;100.00;101016.16;5025063;28;20057;-71
2023/12/06 03:21:38;;;;;;;57.92;35.72;;;;;;;1.66;100.00;101020.50;5024358;28;20073;-71
2023/12/06 03:24:06;;;;;;;63.47;37.45;;;;;;;1.64;100.00;101016.16;5032726;28;20536;-71
2023/12/06 03:26:33;;;;;;;59.92;35.20;;;;;;;1.65;100.00;101016.16;5026871;28;20053;-71
2023/12/06 03:29:00;;;;;;;63.65;39.92;;;;;;;1.64;100.00;101010.97;5040856;28;20045;-72
2023/12/06 03:31:27;;;;;;;61.78;36.50;;;;;;;1.65;100.00;101020.50;5019587;28;20557;-72
2023/12/06 03:33:54;;;;;;;61.35;37.20;;;;;;;1.64;100.00;101031.75;5007196;28;20062;-72
2023/12/06 03:36:21;;;;;;;64.88;39.10;;;;;;;1.64;100.00;101036.97;5026007;28;20041;-72
2023/12/06 03:38:48;;;;;;;59.33;34.80;;;;;;;1.64;100.00;101039.56;5028923;28;20077;-72
2023/12/06 03:41:16;;;;;;;65.20;36.13;;;;;;;1.63;100.00;101037.81;5029716;28;20037;-72
2023/12/06 03:43:43;;;;;;;63.38;38.40;;;;;;;1.63;100.00;101043.88;5029072;28;20041;-72
2023/12/06 03:46:29;;;;;;;63.75;37.80;;;;;;;1.65;100.00;101049.97;5028679;28;20046;-72
2023/12/06 03:48:56;;;;;;;61.83;37.17;;;;;;;1.66;100.00;101050.84;5028338;28;20080;-72
2023/12/06 03:51:23;;;;;;;54.30;36.15;;;;;;;1.65;100.00;101039.56;5031812;28;20056;-72
2023/12/06 03:53:50;;;;;;;56.53;38.05;;;;;;;1.68;100.00;101038.72;5030262;28;20120;-71
2023/12/06 03:56:17;;;;;;;55.65;34.15;;;;;;;1.67;100.00;101044.78;5029740;28;20580;-72
2023/12/06 03:58:44;;;;;;;57.70;35.83;;;;;;;1.66;100.00;101050.84;5030651;28;20046;-71
2023/12/06 04:01:12;;;;;;;60.45;37.92;;;;;;;1.68;100.00;101055.19;5031019;28;20048;-71
2023/12/06 04:03:41;;;;;;;56.95;34.97;;;;;;;1.69;100.00;101056.06;5037875;28;20119;-73
2023/12/06 04:06:08;;;;;;;42.42;20.70;;;;;;;1.68;100.00;101063.00;5035229;28;20834;-73
2023/12/06 04:08:35;;;;;;;53.42;34.53;;;;;;;1.70;100.00;101074.28;5028523;28;20468;-73
2023/12/06 04:11:03;;;;;;;53.72;32.00;;;;;;;1.75;100.00;101068.25;5029410;28;20038;-73
2023/12/06 04:13:30;;;;;;;52.05;34.67;;;;;;;1.74;100.00;101069.97;5040772;28;20074;-73
2023/12/06 04:15:57;;;;;;;56.10;36.65;;;;;;;1.74;100.00;101072.59;5029455;28;20355;-73
2023/12/06 04:18:24;;;;;;;54.28;33.08;;;;;;;1.75;100.00;101070.84;5048980;28;20102;-73
2023/12/06 04:20:52;;;;;;;54.38;37.05;;;;;;;1.76;100.00;101072.59;5035878;28;20044;-73
2023/12/06 04:23:19;;;;;;;55.47;34.45;;;;;;;1.76;100.00;101080.38;5028773;28;20042;-74
2023/12/06 04:25:47;;;;;;;53.78;34.20;;;;;;;1.75;100.00;101070.84;5029792;28;20444;-72
2023/12/06 04:28:15;;;;;;;53.70;34.80;;;;;;;1.75;100.00;101078.63;5037287;28;20037;-72
2023/12/06 04:30:42;;;;;;;55.08;34.40;;;;;;;1.77;100.00;101087.34;5028775;28;20049;-73
2023/12/06 04:33:09;;;;;;;50.72;33.20;;;;;;;1.77;100.00;101079.53;5028595;28;20041;-71
2023/12/06 04:35:36;;;;;;;53.10;35.85;;;;;;;1.78;100.00;101082.13;5030047;28;20046;-71
2023/12/06 04:38:03;;;;;;;52.58;33.03;;;;;;;1.80;100.00;101082.16;5030839;28;20514;-71
2023/12/06 04:40:30;;;;;;;52.80;34.65;;;;;;;1.80;100.00;101085.63;5022511;28;20045;-71
2023/12/06 04:42:57;;;;;;;54.00;35.03;;;;;;;1.81;100.00;101083.91;5029781;28;20077;-73
2023/12/06 04:45:24;;;;;;;54.15;36.40;;;;;;;1.80;100.00;101087.38;5029272;28;20196;-71
2023/12/06 04:47:51;;;;;;;49.90;34.15;;;;;;;1.82;100.00;101085.66;5030005;28;20045;-71
2023/12/06 04:50:18;;;;;;;54.03;37.08;;;;;;;1.82;100.00;101089.13;5029445;28;20053;-71
2023/12/06 04:52:45;;;;;;;50.25;32.15;;;;;;;1.84;100.00;101091.72;5028886;28;20052;-71
2023/12/06 04:55:13;;;;;;;50.08;32.60;;;;;;;1.85;100.00;101089.16;5030188;28;20046;-72
2023/12/06 04:57:41;;;;;;;48.78;33.95;;;;;;;1.84;100.00;101095.22;5029271;28;20049;-72
2023/12/06 05:00:09;;;;;;;49.50;34.22;;;;;;;1.84;100.00;101084.81;5029828;28;20509;-72
2023/12/06 05:02:36;;;;;;;52.20;34.30;;;;;;;1.86;100.00;101090.03;5028421;28;20095;-72
2023/12/06 05:05:04;;;;;;;49.10;34.13;;;;;;;1.86;100.00;101095.22;5032848;28;20071;-73
2023/12/06 05:07:31;;;;;;;46.50;32.63;;;;;;;1.86;100.00;101093.50;5028295;28;20046;-72
2023/12/06 05:09:59;;;;;;;47.70;33.17;;;;;;;1.85;100.00;101091.75;5013003;28;20045;-72
2023/12/06 05:12:26;;;;;;;49.40;33.70;;;;;;;1.86;100.00;101095.22;5036776;28;20148;-72
2023/12/06 05:14:53;;;;;;;50.75;33.80;;;;;;;1.88;100.00;101103.91;5026179;28;20457;-72
2023/12/06 05:17:20;;;;;;;50.42;34.83;;;;;;;1.86;100.00;101098.72;5041073;28;20428;-72
2023/12/06 05:19:48;;;;;;;51.33;34.42;;;;;;;1.88;100.00;101103.06;5022850;28;20108;-72
2023/12/06 05:22:15;;;;;;;45.75;33.78;;;;;;;1.90;100.00;101106.50;5019597;28;20042;-72
2023/12/06 05:24:42;;;;;;;48.20;32.33;;;;;;;1.91;100.00;101105.66;5028432;28;20037;-71
2023/12/06 05:27:09;;;;;;;45.95;31.90;;;;;;;1.91;100.00;101106.56;5028101;28;20120;-71
2023/12/06 05:29:36;;;;;;;45.88;31.83;;;;;;;1.93;100.00;101103.94;5028918;28;20549;-72
2023/12/06 05:32:04;;;;;;;33.45;17.88;;;;;;;1.96;100.00;101111.78;5028488;28;20041;-72
2023/12/06 05:34:31;;;;;;;45.22;30.60;;;;;;;1.99;100.00;101114.41;5026740;28;20041;-72
2023/12/06 05:36:58;;;;;;;44.83;32.70;;;;;;;1.99;100.00;101111.81;5024367;28;20048;-73
2023/12/06 05:39:25;;;;;;;54.05;35.55;;;;;;;2.01;100.00;101107.50;5027844;28;20128;-71
2023/12/06 05:41:53;;;;;;;54.00;36.30;;;;;;;2.03;100.00;101121.38;5025842;28;20038;-71
2023/12/06 05:44:20;;;;;;;55.92;37.60;;;;;;;2.08;100.00;101116.22;5027558;28;20037;-71
2023/12/06 05:46:47;;;;;;;43.67;30.42;;;;;;;2.10;100.00;101117.97;5026922;28;20041;-70
2023/12/06 05:49:14;;;;;;;51.97;36.60;;;;;;;2.10;100.00;101122.31;5027363;28;20453;-71
2023/12/06 05:51:41;;;;;;;63.38;39.35;;;;;;;2.14;100.00;101122.38;5028655;28;20045;-71
2023/12/06 05:54:08;;;;;;;44.05;31.10;;;;;;;2.14;100.00;101117.16;5041765;28;20116;-70
2023/12/06 05:56:35;;;;;;;43.25;32.45;;;;;;;2.15;100.00;101124.13;5048969;28;20049;-70
2023/12/06 05:59:03;;;;;;;45.08;31.48;;;;;;;2.19;100.00;101126.75;5027448;28;20045;-70
2023/12/06 06:01:30;;;;;;;48.35;33.97;;;;;;;2.20;100.00;101129.34;5028413;28;20117;-70
2023/12/06 06:03:57;;;;;;;50.50;38.45;;;;;;;2.24;100.00;101135.44;5024178;28;20493;-70
2023/12/06 06:06:24;;;;;;;49.33;37.88;;;;;;;2.25;100.00;101134.59;5027119;28;21019;-69
2023/12/06 06:08:51;;;;;;;38.83;26.40;;;;;;;2.28;100.00;101137.22;5026209;28;20136;-70
2023/12/06 06:11:18;;;;;;;170.43;70.43;;;;;;;2.29;100.00;101133.78;5026353;28;20127;-70
2023/12/06 06:13:45;;;;;;;96.45;44.30;;;;;;;2.30;100.00;101136.38;5027320;28;20515;-70
2023/12/06 06:16:17;;;;;;;68.18;35.60;;;;;;;2.33;100.00;101141.63;5027381;28;20041;-70
2023/12/06 06:18:44;;;;;;;300.35;94.50;;;;;;;2.36;100.00;101134.69;5024183;28;20564;-70
2023/12/06 06:21:11;;;;;;;100.32;27.27;;;;;;;2.38;100.00;101144.25;5017670;28;20343;-70
2023/12/06 06:23:38;;;;;;;310.98;91.25;;;;;;;2.39;100.00;101140.78;5026088;28;20624;-71
2023/12/06 06:26:08;;;;;;;361.85;105.10;;;;;;;2.41;100.00;101139.06;5017191;28;20104;-71
2023/12/06 06:28:35;;;;;;;412.27;122.35;;;;;;;2.43;100.00;101146.91;5023659;28;20120;-71
2023/12/06 06:31:03;;;;;;;303.70;90.65;;;;;;;2.43;100.00;101155.56;5023233;28;20045;-72
2023/12/06 06:33:31;;;;;;;1085.45;329.48;;;;;;;2.45;100.00;101153.84;5024371;28;20048;-71
2023/12/06 06:35:58;;;;;;;542.47;149.85;;;;;;;2.45;100.00;101152.97;5026250;28;20056;-72
2023/12/06 06:38:25;;;;;;;550.25;183.43;;;;;;;2.47;100.00;101156.47;5025561;28;20053;-72
2023/12/06 06:40:53;;;;;;;459.50;121.55;;;;;;;2.47;100.00;101159.06;5022377;28;20465;-71
2023/12/06 06:43:20;;;;;;;495.58;142.82;;;;;;;2.47;100.00;101167.75;5026872;28;20064;-72
2023/12/06 06:45:47;;;;;;;461.25;163.60;;;;;;;2.48;100.00;101166.00;5033392;28;20033;-71
2023/12/06 06:48:14;;;;;;;337.42;119.55;;;;;;;2.49;100.00;101167.75;5022156;28;20133;-71
2023/12/06 06:50:41;;;;;;;273.52;81.80;;;;;;;2.51;100.00;101175.56;5023429;28;20042;-73
2023/12/06 06:53:11;;;;;;;610.47;202.07;;;;;;;2.52;100.00;101174.72;5025865;28;20049;-74
2023/12/06 06:55:38;;;;;;;341.38;133.70;;;;;;;2.52;100.00;101174.72;5023517;28;20060;-73
2023/12/06 06:58:05;;;;;;;253.75;80.78;;;;;;;2.52;100.00;101179.91;5008778;28;20038;-73
2023/12/06 07:00:32;;;;;;;352.55;127.20;;;;;;;2.52;100.00;101177.31;5040662;28;20037;-72
2023/12/06 07:02:59;;;;;;;94.25;53.00;;;;;;;2.53;100.00;101179.06;5038497;28;20052;-71
2023/12/06 07:05:26;;;;;;;162.10;74.95;;;;;;;2.53;100.00;101184.25;5026274;28;20069;-71
2023/12/06 07:07:55;;;;;;;96.43;52.75;;;;;;;2.53;100.00;101186.88;5031199;28;20052;-71
2023/12/06 07:10:23;;;;;;;180.90;93.07;;;;;;;2.54;100.00;101186.91;5031536;28;20042;-72
2023/12/06 07:12:50;;;;;;;110.68;71.85;;;;;;;2.56;100.00;101192.13;5023755;28;20044;-71
2023/12/06 07:15:17;;;;;;;108.32;64.55;;;;;;;2.55;100.00;101191.22;5026843;28;20118;-71
2023/12/06 07:17:45;;;;;;;219.30;88.25;;;;;;;2.59;100.00;101200.81;5027341;28;20045;-71
2023/12/06 07:20:13;;;;;;;441.58;202.77;;;;;;;2.61;100.00;101200.81;5029189;28;20831;-73
2023/12/06 07:22:42;;;;;;;321.80;130.63;;;;;;;2.63;100.00;101199.09;5031133;28;20045;-73
2023/12/06 07:25:09;;;;;;;289.77;118.28;;;;;;;2.62;100.00;101207.78;5044888;28;20042;-72
2023/12/06 07:27:37;;;;;;;85.20;52.05;;;;;;;2.66;100.00;101206.94;5030498;28;20104;-72
2023/12/06 07:30:05;;;;;;;61.75;37.22;;;;;;;2.67;100.00;101205.19;5030493;28;20386;-72
2023/12/06 07:32:32;;;;;;;162.05;59.45;;;;;;;2.67;100.00;101200.88;5039555;28;20050;-72
2023/12/06 07:35:15;;;;;;;134.27;55.42;;;;;;;2.70;100.00;101210.44;5029942;28;20034;-71
2023/12/06 07:37:42;;;;;;;214.82;74.63;;;;;;;2.73;100.00;101226.09;5025151;28;20132;-72
2023/12/06 07:40:11;;;;;;;169.93;61.13;;;;;;;2.73;100.00;101218.28;5030817;28;20390;-72
2023/12/06 07:42:39;;;;;;;117.32;46.15;;;;;;;2.75;100.00;101227.84;5029501;28;20552;-72
2023/12/06 07:45:12;;;;;;;104.72;43.60;;;;;;;2.77;100.00;101225.25;5031419;28;20060;-72
2023/12/06 07:47:40;;;;;;;120.87;51.33;;;;;;;2.79;100.00;101228.75;5029150;28;20041;-72
2023/12/06 07:50:09;;;;;;;181.23;68.65;;;;;;;2.82;100.00;101233.09;5030137;28;20099;-72
2023/12/06 07:52:37;;;;;;;106.22;48.10;;;;;;;2.84;100.00;101234.88;5041787;28;20397;-72
2023/12/06 07:55:06;;;;;;;144.38;57.78;;;;;;;2.86;100.00;101245.28;5030152;28;20044;-72
2023/12/06 07:57:34;;;;;;;151.73;65.97;;;;;;;2.86;100.00;101240.94;5023798;28;20041;-72
2023/12/06 08:00:04;;;;;;;150.60;59.78;;;;;;;2.89;100.00;101245.34;5031368;28;20041;-71
2023/12/06 08:02:42;;;;;;;130.85;52.60;;;;;;;2.92;100.00;101250.53;5029755;28;20667;-71
2023/12/06 08:05:10;;;;;;;96.85;42.83;;;;;;;2.95;100.00;101251.44;5026870;28;20044;-71
2023/12/06 08:07:39;;;;;;;223.88;85.32;;;;;;;2.97;100.00;101247.97;5027637;28;20041;-71
2023/12/06 08:10:19;;;;;;;301.52;99.68;;;;;;;3.00;100.00;101253.22;5022530;28;20128;-71
2023/12/06 08:12:46;;;;;;;90.68;39.63;;;;;;;3.02;100.00;101257.56;5028939;28;20044;-71
2023/12/06 08:15:14;;;;;;;164.55;61.58;;;;;;;3.06;100.00;101258.47;5029258;28;20038;-72
2023/12/06 08:17:41;;;;;;;34.75;22.40;;;;;;;3.08;100.00;101270.66;5039008;28;20068;-71
2023/12/06 08:20:09;;;;;;;39.88;25.95;;;;;;;3.10;100.00;101281.94;5027396;28;20116;-72
2023/12/06 08:22:37;;;;;;;37.38;24.60;;;;;;;3.11;100.00;101273.25;5026012;28;20743;-73
2023/12/06 08:25:06;;;;;;;90.03;39.50;;;;;;;3.12;100.00;101274.16;5043558;28;20117;-73
2023/12/06 08:27:34;;;;;;;82.70;37.65;;;;;;;3.14;100.00;101274.16;5028190;28;20041;-74
2023/12/06 08:30:02;;;;;;;47.05;27.83;;;;;;;3.12;100.00;101266.34;5016558;28;20037;-72
2023/12/06 08:32:30;;;;;;;48.03;32.13;;;;;;;3.11;100.00;101267.19;5019476;28;20045;-72
2023/12/06 08:34:58;;;;;;;38.00;25.48;;;;;;;3.11;100.00;101268.06;5030327;28;20041;-72
2023/12/06 08:37:26;;;;;;;34.38;24.80;;;;;;;3.10;100.00;101271.50;5029298;28;20038;-72
2023/12/06 08:39:54;;;;;;;95.75;48.95;;;;;;;3.11;100.00;101275.00;5018139;28;20413;-73
2023/12/06 08:42:21;;;;;;;79.80;44.55;;;;;;;3.13;100.00;101275.00;5032268;28;20050;-73
2023/12/06 08:44:48;;;;;;;62.45;38.10;;;;;;;3.14;100.00;101274.16;5025581;28;20042;-72
2023/12/06 08:47:18;;;;;;;58.28;34.80;;;;;;;3.15;100.00;101266.38;5041746;28;20052;-72
2023/12/06 08:49:46;;;;;;;63.28;36.72;;;;;;;3.15;100.00;101271.59;5020834;28;20071;-72
2023/12/06 08:52:14;;;;;;;44.60;30.17;;;;;;;3.18;100.00;101276.78;5037942;28;20046;-72
2023/12/06 08:54:41;;;;;;;49.55;34.30;;;;;;;3.21;100.00;101283.75;5024937;28;20444;-72
2023/12/06 08:57:08;;;;;;;49.60;33.58;;;;;;;3.23;100.00;101285.53;5029352;28;20488;-72
2023/12/06 08:59:35;;;;;;;42.00;29.70;;;;;;;3.29;100.00;101295.13;5029300;28;20041;-72
2023/12/06 09:02:02;;;;;;;37.35;26.55;;;;;;;3.31;100.00;101289.91;5024052;28;20045;-72
2023/12/06 09:04:30;;;;;;;33.97;24.75;;;;;;;3.34;100.00;101290.81;5026428;28;20128;-72
2023/12/06 09:06:57;;;;;;;37.67;24.92;;;;;;;3.36;100.00;101291.69;5043505;28;20128;-73
2023/12/06 09:09:24;;;;;;;31.70;22.20;;;;;;;3.40;100.00;101301.28;5027375;28;20045;-72
2023/12/06 09:11:53;;;;;;;35.75;25.95;;;;;;;3.45;100.00;101303.94;5028995;28;20514;-72
2023/12/06 09:14:20;;;;;;;38.10;26.60;;;;;;;3.47;100.00;101304.78;5026929;28;20052;-72
2023/12/06 09:16:47;;;;;;;30.70;21.05;;;;;;;3.49;100.00;101305.66;5027147;28;20041;-72
2023/12/06 09:19:14;;;;;;;28.25;22.35;;;;;;;3.52;100.00;101299.59;5015561;28;20058;-77
2023/12/06 09:21:44;;;;;;;29.00;22.50;;;;;;;3.56;100.00;101306.59;5041347;28;20056;-72
2023/12/06 09:24:13;;;;;;;30.45;20.63;;;;;;;3.59;100.00;101319.66;5029981;28;20046;-72
2023/12/06 09:26:41;;;;;;;30.90;21.88;;;;;;;3.63;100.00;101318.78;5030782;28;20132;-71
2023/12/06 09:29:10;;;;;;;27.40;19.88;;;;;;;3.67;100.00;101311.84;5030984;28;20049;-71
2023/12/06 09:31:38;;;;;;;37.08;29.75;;;;;;;3.71;100.00;101316.25;5022015;28;20524;-73
2023/12/06 09:34:06;;;;;;;25.25;20.27;;;;;;;3.76;100.00;101319.75;5020895;28;20056;-72
2023/12/06 09:36:35;;;;;;;33.38;25.10;;;;;;;3.82;100.00;101324.09;5019318;28;20604;-72
2023/12/06 09:39:04;;;;;;;39.55;21.60;;;;;;;3.85;100.00;101326.75;5021180;28;20042;-72
2023/12/06 09:41:33;;;;;;;30.23;21.50;;;;;;;3.91;100.00;101329.41;5020167;28;20055;-72
2023/12/06 09:44:01;;;;;;;24.40;18.83;;;;;;;3.92;100.00;101325.91;5021131;28;20045;-72
2023/12/06 09:46:28;;;;;;;29.50;21.05;;;;;;;3.97;100.00;101336.38;5020556;28;20049;-72
2023/12/06 09:48:55;;;;;;;28.52;19.70;;;;;;;4.02;100.00;101337.25;5020573;28;20067;-72
2023/12/06 09:51:22;;;;;;;25.23;18.52;;;;;;;4.05;100.00;101337.28;5019876;28;20037;-72
2023/12/06 09:53:51;;;;;;;22.48;18.40;;;;;;;4.11;100.00;101337.31;5017833;28;20056;-72
2023/12/06 09:56:18;;;;;;;30.33;18.80;;;;;;;4.17;100.00;101344.28;5019843;28;20125;-72
2023/12/06 09:58:45;;;;;;;28.63;17.27;;;;;;;4.24;100.00;101332.16;5020471;28;20049;-72
2023/12/06 10:01:13;;;;;;;27.52;18.55;;;;;;;4.27;100.00;101340.84;5019221;28;20100;-72
2023/12/06 10:03:42;;;;;;;24.98;18.08;;;;;;;4.30;100.00;101342.59;5034442;28;20049;-72
2023/12/06 10:06:10;;;;;;;24.85;18.20;;;;;;;4.33;100.00;101342.63;5025989;28;20664;-71
2023/12/06 10:08:37;;;;;;;26.83;17.30;;;;;;;4.35;100.00;101346.13;5010513;28;20064;-72
2023/12/06 10:11:07;;;;;;;25.83;17.00;;;;;;;4.36;100.00;101347.88;5018701;28;20049;-72
2023/12/06 10:13:41;;;;;;;21.80;14.88;;;;;;;4.38;100.00;101350.47;5043848;28;20041;-71
2023/12/06 10:16:14;;;;;;;22.30;14.90;;;;;;;4.38;100.00;101353.94;5044242;28;20046;-71
2023/12/06 10:18:47;;;;;;;24.48;15.75;;;;;;;4.35;100.00;101354.81;5019461;28;20057;-72
2023/12/06 10:21:16;;;;;;;21.85;15.80;;;;;;;4.30;100.00;101353.03;5018580;28;20048;-72
2023/12/06 10:23:59;;;;;;;20.83;14.88;;;;;;;4.24;100.00;101350.41;5019056;28;20864;-72
2023/12/06 10:26:28;;;;;;;24.88;16.58;;;;;;;4.22;100.00;101357.34;5019435;28;20586;-73
2023/12/06 10:28:58;;;;;;;21.98;15.52;;;;;;;4.23;100.00;101359.97;5018424;28;20414;-71
2023/12/06 10:31:26;;;;;;;20.48;14.73;;;;;;;4.27;100.00;101361.75;5027632;28;20049;-72
2023/12/06 10:33:56;;;;;;;22.73;15.80;;;;;;;4.31;100.00;101363.50;5018854;28;20049;-72
2023/12/06 10:36:27;;;;;;;26.02;16.35;;;;;;;4.35;100.00;101360.03;5019530;28;20037;-72
2023/12/06 10:38:57;;;;;;;22.63;15.77;;;;;;;4.40;100.00;101360.03;5019308;28;21230;-72
2023/12/06 10:41:26;;;;;;;24.17;15.85;;;;;;;4.45;100.00;101363.56;5014286;28;20057;-72
2023/12/06 10:43:57;;;;;;;25.23;16.92;;;;;;;4.49;100.00;101357.47;5019533;28;20095;-71
2023/12/06 10:46:26;;;;;;;25.63;17.00;;;;;;;4.54;100.00;101360.09;5018034;28;20080;-72
2023/12/06 10:48:56;;;;;;;21.40;17.42;;;;;;;4.61;100.00;101363.59;5019388;28;20702;-72
2023/12/06 10:51:25;;;;;;;21.92;15.63;;;;;;;4.66;100.00;101362.72;5017870;28;20045;-71
2023/12/06 10:53:56;;;;;;;23.05;16.67;;;;;;;4.81;100.00;101371.47;5020165;28;20046;-71
2023/12/06 10:56:26;;;;;;;22.33;16.17;;;;;;;5.03;100.00;101361.94;5024241;28;20060;-72
2023/12/06 10:58:56;;;;;;;19.27;14.73;;;;;;;5.24;100.00;101365.44;5017159;28;20080;-73
2023/12/06 11:01:24;;;;;;;18.38;13.18;;;;;;;5.31;100.00;101367.16;5017971;28;20083;-73
2023/12/06 11:03:54;;;;;;;17.80;13.73;;;;;;;5.22;100.00;101367.16;5018826;28;20056;-73
2023/12/06 11:06:48;;;;;;;20.60;14.48;;;;;;;5.09;100.00;101366.28;5034680;28;20041;-73
2023/12/06 11:09:43;;;;;;;18.40;12.05;;;;;;;4.92;100.00;101361.03;5017944;28;20042;-73
2023/12/06 11:12:25;;;;;;;20.02;13.13;;;;;;;4.92;100.00;101363.66;5036757;28;20052;-73